Time,TemperatureF,DewpointF,PressureIn,WindDirection,WindDirectionDegrees,WindSpeedMPH,WindSpeedGustMPH,Humidity,HourlyPrecipIn,Conditions,Clouds,dailyrainin,SoftwareType,DateUTC
2013-06-05 00:03:00,63.0,-99.9,-100.00,East,94,5.0,6.0,-999,0.00,,,0.00,,2013-06-05 05:03:00,
2013-06-05 00:12:00,63.0,-99.9,-100.00,East,94,5.0,6.0,-999,0.00,,,0.00,,2013-06-05 05:12:00,
2013-06-05 00:23:00,63.0,-99.9,-100.00,East,94,5.0,6.0,-999,0.00,,,0.00,,2013-06-05 05:23:00,
2013-06-05 00:32:00,64.0,-99.9,-100.00,East,82,4.0,6.0,-999,0.00,,,0.00,,2013-06-05 05:32:00,
2013-06-05 00:42:00,64.0,-99.9,-100.00,East,82,4.0,6.0,-999,0.00,,,0.00,,2013-06-05 05:42:00,
2013-06-05 00:53:00,65.0,-99.9,-100.00,East,86,4.0,6.0,-999,0.00,,,0.00,,2013-06-05 05:53:00,
2013-06-05 01:02:00,65.0,-99.9,-100.00,East,86,4.0,6.0,-999,0.00,,,0.00,,2013-06-05 06:02:00,
2013-06-05 01:12:00,65.0,-99.9,-100.00,East,86,4.0,6.0,-999,0.00,,,0.00,,2013-06-05 06:12:00,
2013-06-05 01:22:00,65.0,-99.9,-100.00,East,86,4.0,6.0,-999,0.00,,,0.00,,2013-06-05 06:22:00,
2013-06-05 01:32:00,64.0,-99.9,-100.00,East,83,4.0,5.0,-999,0.00,,,0.00,,2013-06-05 06:32:00,
2013-06-05 01:42:00,64.0,-99.9,-100.00,East,83,4.0,5.0,-999,0.00,,,0.00,,2013-06-05 06:42:00,
2013-06-05 01:52:00,63.0,-99.9,-100.00,East,83,5.0,6.0,-999,0.00,,,0.00,,2013-06-05 06:52:00,
2013-06-05 02:02:00,63.0,-99.9,-100.00,East,83,5.0,6.0,-999,0.00,,,0.00,,2013-06-05 07:02:00,
2013-06-05 02:12:00,63.0,-99.9,-100.00,East,83,5.0,6.0,-999,0.00,,,0.00,,2013-06-05 07:12:00,
2013-06-05 02:22:00,63.0,-99.9,-100.00,East,83,5.0,6.0,-999,0.00,,,0.00,,2013-06-05 07:22:00,
2013-06-05 02:32:00,62.0,-99.9,-100.00,East,92,3.0,5.0,-999,0.00,,,0.00,,2013-06-05 07:32:00,
2013-06-05 02:42:00,62.0,-99.9,-100.00,East,92,3.0,5.0,-999,0.00,,,0.00,,2013-06-05 07:42:00,
2013-06-05 02:52:00,62.0,-99.9,-100.00,East,92,3.0,5.0,-999,0.00,,,0.00,,2013-06-05 07:52:00,
2013-06-05 03:02:00,63.0,-99.9,-100.00,East,83,1.0,2.0,-999,0.00,,,0.00,,2013-06-05 08:02:00,
2013-06-05 03:12:00,63.0,-99.9,-100.00,East,83,1.0,2.0,-999,0.00,,,0.00,,2013-06-05 08:12:00,
2013-06-05 03:22:00,63.0,-99.9,-100.00,East,83,1.0,2.0,-999,0.00,,,0.00,,2013-06-05 08:22:00,
2013-06-05 03:32:00,63.0,-99.9,-100.00,East,97,3.0,6.0,-999,0.00,,,0.00,,2013-06-05 08:32:00,
2013-06-05 03:42:00,63.0,-99.9,-100.00,East,97,3.0,6.0,-999,0.00,,,0.00,,2013-06-05 08:42:00,
2013-06-05 03:52:00,62.0,-99.9,-100.00,East,81,3.0,4.0,-999,0.00,,,0.00,,2013-06-05 08:52:00,
2013-06-05 04:02:00,62.0,-99.9,-100.00,East,81,3.0,4.0,-999,0.00,,,0.00,,2013-06-05 09:02:00,
2013-06-05 04:12:00,62.0,-99.9,-100.00,East,81,3.0,4.0,-999,0.00,,,0.00,,2013-06-05 09:12:00,
2013-06-05 04:22:00,62.0,-99.9,-100.00,East,81,3.0,4.0,-999,0.00,,,0.00,,2013-06-05 09:22:00,
2013-06-05 04:33:00,62.0,-99.9,-100.00,East,98,5.0,6.0,-999,0.00,,,0.00,,2013-06-05 09:33:00,
2013-06-05 04:43:00,62.0,-99.9,-100.00,East,98,5.0,6.0,-999,0.00,,,0.00,,2013-06-05 09:43:00,
2013-06-05 04:53:00,62.0,-99.9,-100.00,East,86,4.0,7.0,-999,0.02,,,0.02,,2013-06-05 09:53:00,
2013-06-05 05:03:00,62.0,-99.9,-100.00,East,86,4.0,7.0,-999,0.02,,,0.02,,2013-06-05 10:03:00,
2013-06-05 05:13:00,62.0,-99.9,-100.00,East,86,4.0,7.0,-999,0.02,,,0.02,,2013-06-05 10:13:00,
2013-06-05 05:23:00,62.0,-99.9,-100.00,East,86,4.0,7.0,-999,0.02,,,0.02,,2013-06-05 10:23:00,
2013-06-05 05:33:00,60.0,-99.9,-100.00,East,80,2.0,4.0,-999,0.02,,,0.02,,2013-06-05 10:33:00,
2013-06-05 05:43:00,60.0,-99.9,-100.00,East,80,2.0,4.0,-999,0.02,,,0.02,,2013-06-05 10:43:00,
2013-06-05 05:53:00,60.0,-99.9,-100.00,East,80,2.0,4.0,-999,0.02,,,0.02,,2013-06-05 10:53:00,
2013-06-05 06:02:00,60.0,-99.9,-100.00,ESE,107,3.0,6.0,-999,0.01,,,0.03,,2013-06-05 11:02:00,
2013-06-05 06:13:00,60.0,-99.9,-100.00,ESE,107,3.0,6.0,-999,0.01,,,0.03,,2013-06-05 11:13:00,
2013-06-05 06:22:00,60.0,-99.9,-100.00,ESE,107,3.0,6.0,-999,0.01,,,0.03,,2013-06-05 11:22:00,
2013-06-05 06:30:00,60.0,-99.9,-100.00,East,93,2.0,3.0,-999,0.00,,,0.03,,2013-06-05 11:30:00,
2013-06-05 06:33:00,61.0,-99.9,-100.00,NE,37,3.0,5.0,-999,0.01,,,0.03,,2013-06-05 11:33:00,
2013-06-05 06:42:00,61.0,-99.9,-100.00,NE,37,3.0,5.0,-999,0.01,,,0.03,,2013-06-05 11:42:00,
2013-06-05 06:52:00,61.0,-99.9,-100.00,NE,37,3.0,5.0,-999,0.01,,,0.03,,2013-06-05 11:52:00,
2013-06-05 07:02:00,60.0,-99.9,-100.00,East,93,2.0,3.0,-999,0.00,,,0.03,,2013-06-05 12:02:00,
2013-06-05 07:12:00,60.0,-99.9,-100.00,East,93,2.0,3.0,-999,0.00,,,0.03,,2013-06-05 12:12:00,
2013-06-05 07:22:00,60.0,-99.9,-100.00,East,93,2.0,3.0,-999,0.00,,,0.03,,2013-06-05 12:22:00,
2013-06-05 07:52:00,61.0,-99.9,-100.00,ESE,104,5.0,7.0,-999,0.00,,,0.03,,2013-06-05 12:52:00,
2013-06-05 08:02:00,61.0,-99.9,-100.00,ESE,104,5.0,7.0,-999,0.00,,,0.03,,2013-06-05 13:02:00,
2013-06-05 08:12:00,61.0,-99.9,-100.00,ESE,104,5.0,7.0,-999,0.00,,,0.03,,2013-06-05 13:12:00,
2013-06-05 08:22:00,61.0,-99.9,-100.00,ESE,104,5.0,7.0,-999,0.00,,,0.03,,2013-06-05 13:22:00,
2013-06-05 08:33:00,62.0,-99.9,-100.00,NE,49,4.0,7.0,-999,0.00,,,0.03,,2013-06-05 13:33:00,
2013-06-05 08:42:00,62.0,-99.9,-100.00,NE,49,4.0,7.0,-999,0.00,,,0.03,,2013-06-05 13:42:00,
2013-06-05 08:53:00,62.0,-99.9,-100.00,NE,49,4.0,7.0,-999,0.00,,,0.03,,2013-06-05 13:53:00,
2013-06-05 09:02:00,62.0,-99.9,-100.00,ENE,57,5.0,7.0,-999,0.00,,,0.03,,2013-06-05 14:02:00,
2013-06-05 09:13:00,62.0,-99.9,-100.00,ENE,57,5.0,7.0,-999,0.00,,,0.03,,2013-06-05 14:13:00,
2013-06-05 09:22:00,62.0,-99.9,-100.00,ENE,57,5.0,7.0,-999,0.00,,,0.03,,2013-06-05 14:22:00,
2013-06-05 09:32:00,63.0,-99.9,-100.00,ENE,74,4.0,6.0,-999,0.00,,,0.03,,2013-06-05 14:32:00,
2013-06-05 09:42:00,63.0,-99.9,-100.00,ENE,74,4.0,6.0,-999,0.00,,,0.03,,2013-06-05 14:42:00,
2013-06-05 09:52:00,63.0,-99.9,-100.00,ENE,74,4.0,6.0,-999,0.00,,,0.03,,2013-06-05 14:52:00,
2013-06-05 10:03:00,63.0,-99.9,-100.00,East,81,3.0,5.0,-999,0.00,,,0.03,,2013-06-05 15:03:00,
2013-06-05 10:13:00,63.0,-99.9,-100.00,East,81,3.0,5.0,-999,0.00,,,0.03,,2013-06-05 15:13:00,
2013-06-05 10:23:00,63.0,-99.9,-100.00,East,81,3.0,5.0,-999,0.00,,,0.03,,2013-06-05 15:23:00,
2013-06-05 10:33:00,63.0,-99.9,-100.00,East,82,4.0,6.0,-999,0.00,,,0.03,,2013-06-05 15:33:00,
2013-06-05 10:43:00,63.0,-99.9,-100.00,East,82,4.0,6.0,-999,0.00,,,0.03,,2013-06-05 15:43:00,
2013-06-05 10:53:00,65.0,-99.9,-100.00,East,97,6.0,8.0,-999,0.00,,,0.03,,2013-06-05 15:53:00,
2013-06-05 11:04:00,65.0,-99.9,-100.00,East,97,6.0,8.0,-999,0.00,,,0.03,,2013-06-05 16:04:00,
2013-06-05 11:13:00,65.0,-99.9,-100.00,East,97,6.0,8.0,-999,0.00,,,0.03,,2013-06-05 16:13:00,
2013-06-05 11:23:00,65.0,-99.9,-100.00,East,97,6.0,8.0,-999,0.00,,,0.03,,2013-06-05 16:23:00,
2013-06-05 11:32:00,65.0,-99.9,-100.00,ESE,112,10.0,13.0,-999,0.00,,,0.03,,2013-06-05 16:32:00,
2013-06-05 11:42:00,65.0,-99.9,-100.00,ESE,112,10.0,13.0,-999,0.00,,,0.03,,2013-06-05 16:42:00,
2013-06-05 11:54:00,65.0,-99.9,-100.00,SE,132,9.0,12.0,-999,0.00,,,0.03,,2013-06-05 16:54:00,
2013-06-05 12:03:00,65.0,-99.9,-100.00,SE,132,9.0,12.0,-999,0.00,,,0.03,,2013-06-05 17:03:00,
2013-06-05 12:13:00,65.0,-99.9,-100.00,SE,132,9.0,12.0,-999,0.00,,,0.03,,2013-06-05 17:13:00,
2013-06-05 12:23:00,65.0,-99.9,-100.00,SE,132,9.0,12.0,-999,0.00,,,0.03,,2013-06-05 17:23:00,
2013-06-05 12:33:00,66.0,-99.9,-100.00,SE,135,7.0,10.0,-999,0.00,,,0.03,,2013-06-05 17:33:00,
2013-06-05 12:43:00,66.0,-99.9,-100.00,SE,135,7.0,10.0,-999,0.00,,,0.03,,2013-06-05 17:43:00,
2013-06-05 12:52:00,66.0,-99.9,-100.00,SE,135,7.0,10.0,-999,0.00,,,0.03,,2013-06-05 17:52:00,
2013-06-05 13:03:00,67.0,-99.9,-100.00,NE,54,2.0,3.0,-999,0.00,,,0.03,,2013-06-05 18:03:00,
2013-06-05 13:13:00,67.0,-99.9,-100.00,NE,54,2.0,3.0,-999,0.00,,,0.03,,2013-06-05 18:13:00,
2013-06-05 13:23:00,67.0,-99.9,-100.00,NE,54,2.0,3.0,-999,0.00,,,0.03,,2013-06-05 18:23:00,
2013-06-05 13:32:00,66.0,-99.9,-100.00,ENE,68,2.0,3.0,-999,0.00,,,0.03,,2013-06-05 18:32:00,
2013-06-05 13:42:00,66.0,-99.9,-100.00,ENE,68,2.0,3.0,-999,0.00,,,0.03,,2013-06-05 18:42:00,
2013-06-05 13:52:00,66.0,-99.9,-100.00,NNE,30,3.0,4.0,-999,0.00,,,0.03,,2013-06-05 18:52:00,
2013-06-05 14:03:00,66.0,-99.9,-100.00,NNE,30,3.0,4.0,-999,0.00,,,0.03,,2013-06-05 19:03:00,
2013-06-05 14:13:00,66.0,-99.9,-100.00,NNE,30,3.0,4.0,-999,0.00,,,0.03,,2013-06-05 19:13:00,
2013-06-05 14:23:00,66.0,-99.9,-100.00,NNE,30,3.0,4.0,-999,0.00,,,0.03,,2013-06-05 19:23:00,
2013-06-05 14:32:00,66.0,-99.9,-100.00,NE,37,4.0,5.0,-999,0.00,,,0.03,,2013-06-05 19:32:00,
2013-06-05 14:42:00,66.0,-99.9,-100.00,NE,37,4.0,5.0,-999,0.00,,,0.03,,2013-06-05 19:42:00,
2013-06-05 14:53:00,66.0,-99.9,-100.00,NE,38,4.0,5.0,-999,0.00,,,0.03,,2013-06-05 19:53:00,
2013-06-05 15:03:00,66.0,-99.9,-100.00,NE,38,4.0,5.0,-999,0.00,,,0.03,,2013-06-05 20:03:00,
2013-06-05 15:12:00,66.0,-99.9,-100.00,NE,38,4.0,5.0,-999,0.00,,,0.03,,2013-06-05 20:12:00,
2013-06-05 15:23:00,66.0,-99.9,-100.00,NE,38,4.0,5.0,-999,0.00,,,0.03,,2013-06-05 20:23:00,
2013-06-05 15:32:00,66.0,-99.9,-100.00,North,357,4.0,5.0,-999,0.00,,,0.03,,2013-06-05 20:32:00,
2013-06-05 15:42:00,66.0,-99.9,-100.00,North,357,4.0,5.0,-999,0.00,,,0.03,,2013-06-05 20:42:00,
2013-06-05 15:52:00,65.0,-99.9,-100.00,NNE,19,5.0,6.0,-999,0.00,,,0.03,,2013-06-05 20:52:00,
2013-06-05 16:02:00,65.0,-99.9,-100.00,NNE,19,5.0,6.0,-999,0.00,,,0.03,,2013-06-05 21:02:00,
2013-06-05 16:12:00,65.0,-99.9,-100.00,NNE,19,5.0,6.0,-999,0.00,,,0.03,,2013-06-05 21:12:00,
2013-06-05 16:23:00,65.0,-99.9,-100.00,NNE,19,5.0,6.0,-999,0.00,,,0.03,,2013-06-05 21:23:00,
2013-06-05 16:33:00,65.0,-99.9,-100.00,NE,46,7.0,8.0,-999,0.00,,,0.03,,2013-06-05 21:33:00,
2013-06-05 16:43:00,65.0,-99.9,-100.00,NE,46,7.0,8.0,-999,0.00,,,0.03,,2013-06-05 21:43:00,
2013-06-05 16:53:00,66.0,-99.9,-100.00,NE,40,6.0,7.0,-999,0.01,,,0.04,,2013-06-05 21:53:00,
2013-06-05 17:03:00,66.0,-99.9,-100.00,NE,40,6.0,7.0,-999,0.01,,,0.04,,2013-06-05 22:03:00,
2013-06-05 17:13:00,66.0,-99.9,-100.00,NE,40,6.0,7.0,-999,0.01,,,0.04,,2013-06-05 22:13:00,
2013-06-05 17:23:00,66.0,-99.9,-100.00,NE,40,6.0,7.0,-999,0.01,,,0.04,,2013-06-05 22:23:00,
2013-06-05 17:33:00,67.0,-99.9,-100.00,NNE,24,7.0,9.0,-999,0.01,,,0.04,,2013-06-05 22:33:00,
2013-06-05 17:43:00,67.0,-99.9,-100.00,NNE,24,7.0,9.0,-999,0.01,,,0.04,,2013-06-05 22:43:00,
2013-06-05 17:53:00,67.0,-99.9,-100.00,NNE,32,8.0,10.0,-999,0.00,,,0.04,,2013-06-05 22:53:00,
2013-06-05 18:02:00,67.0,-99.9,-100.00,NNE,32,8.0,10.0,-999,0.00,,,0.04,,2013-06-05 23:02:00,
2013-06-05 18:12:00,67.0,-99.9,-100.00,NNE,32,8.0,10.0,-999,0.00,,,0.04,,2013-06-05 23:12:00,
2013-06-05 18:22:00,67.0,-99.9,-100.00,NNE,32,8.0,10.0,-999,0.00,,,0.04,,2013-06-05 23:22:00,
2013-06-05 18:30:00,66.0,-99.9,-100.00,NNE,28,6.0,7.0,-999,0.00,,,0.04,,2013-06-05 23:30:00,
2013-06-05 18:32:00,67.0,-99.9,-100.00,NNE,30,5.0,7.0,-999,0.00,,,0.04,,2013-06-05 23:32:00,
2013-06-05 18:42:00,67.0,-99.9,-100.00,NNE,30,5.0,7.0,-999,0.00,,,0.04,,2013-06-05 23:42:00,
2013-06-05 18:53:00,66.0,-99.9,-100.00,NNE,28,6.0,7.0,-999,0.00,,,0.04,,2013-06-05 23:53:00,
2013-06-05 19:02:00,66.0,-99.9,-100.00,NNE,28,6.0,7.0,-999,0.00,,,0.04,,2013-06-06 00:02:00,
2013-06-05 19:12:00,66.0,-99.9,-100.00,NNE,28,6.0,7.0,-999,0.00,,,0.04,,2013-06-06 00:12:00,
2013-06-05 19:22:00,66.0,-99.9,-100.00,NNE,28,6.0,7.0,-999,0.00,,,0.04,,2013-06-06 00:22:00,
2013-06-05 19:52:00,65.0,-99.9,-100.00,NE,53,5.0,6.0,-999,0.02,,,0.06,,2013-06-06 00:52:00,
2013-06-05 20:02:00,65.0,-99.9,-100.00,NE,53,5.0,6.0,-999,0.02,,,0.06,,2013-06-06 01:02:00,
2013-06-05 20:13:00,65.0,-99.9,-100.00,NE,53,5.0,6.0,-999,0.02,,,0.06,,2013-06-06 01:13:00,
2013-06-05 20:22:00,65.0,-99.9,-100.00,NE,53,5.0,6.0,-999,0.02,,,0.06,,2013-06-06 01:22:00,
2013-06-05 20:32:00,65.0,-99.9,-100.00,NNE,23,5.0,7.0,-999,0.01,,,0.06,,2013-06-06 01:32:00,
2013-06-05 20:42:00,65.0,-99.9,-100.00,NNE,23,5.0,7.0,-999,0.01,,,0.06,,2013-06-06 01:42:00,
2013-06-05 20:53:00,64.0,-99.9,-100.00,NE,35,7.0,9.0,-999,0.00,,,0.06,,2013-06-06 01:53:00,
2013-06-05 21:02:00,64.0,-99.9,-100.00,NE,35,7.0,9.0,-999,0.00,,,0.06,,2013-06-06 02:02:00,
2013-06-05 21:12:00,64.0,-99.9,-100.00,NE,35,7.0,9.0,-999,0.00,,,0.06,,2013-06-06 02:12:00,
2013-06-05 21:22:00,64.0,-99.9,-100.00,NE,35,7.0,9.0,-999,0.00,,,0.06,,2013-06-06 02:22:00,
2013-06-05 21:32:00,64.0,-99.9,-100.00,NE,45,9.0,10.0,-999,0.00,,,0.06,,2013-06-06 02:32:00,
2013-06-05 21:42:00,64.0,-99.9,-100.00,NE,45,9.0,10.0,-999,0.00,,,0.06,,2013-06-06 02:42:00,
2013-06-05 21:52:00,64.0,-99.9,-100.00,NE,45,9.0,10.0,-999,0.00,,,0.06,,2013-06-06 02:52:00,
2013-06-05 22:02:00,63.0,-99.9,-100.00,NE,35,6.0,7.0,-999,0.00,,,0.06,,2013-06-06 03:02:00,
2013-06-05 22:12:00,63.0,-99.9,-100.00,NE,35,6.0,7.0,-999,0.00,,,0.06,,2013-06-06 03:12:00,
2013-06-05 22:22:00,63.0,-99.9,-100.00,NE,35,6.0,7.0,-999,0.00,,,0.06,,2013-06-06 03:22:00,
2013-06-05 22:33:00,63.0,-99.9,-100.00,ENE,65,7.0,9.0,-999,0.00,,,0.06,,2013-06-06 03:33:00,
2013-06-05 22:43:00,63.0,-99.9,-100.00,ENE,65,7.0,9.0,-999,0.00,,,0.06,,2013-06-06 03:43:00,
2013-06-05 22:53:00,62.0,-99.9,-100.00,East,95,6.0,9.0,-999,0.00,,,0.06,,2013-06-06 03:53:00,
2013-06-05 23:03:00,62.0,-99.9,-100.00,East,95,6.0,9.0,-999,0.00,,,0.06,,2013-06-06 04:03:00,
2013-06-05 23:13:00,62.0,-99.9,-100.00,East,95,6.0,9.0,-999,0.00,,,0.06,,2013-06-06 04:13:00,
2013-06-05 23:23:00,62.0,-99.9,-100.00,East,95,6.0,9.0,-999,0.00,,,0.06,,2013-06-06 04:23:00,
2013-06-05 23:33:00,62.0,-99.9,-100.00,East,95,5.0,8.0,-999,0.00,,,0.06,,2013-06-06 04:33:00,
2013-06-05 23:42:00,62.0,-99.9,-100.00,East,95,5.0,8.0,-999,0.00,,,0.06,,2013-06-06 04:42:00,
2013-06-05 23:53:00,61.0,-99.9,-100.00,East,92,5.0,6.0,-999,0.00,,,0.06,,2013-06-06 04:53:00,